createdAt,value
2018-11-04T00:00:48.979Z,17.65
2018-11-04T00:03:14.929Z,17.64
2018-11-04T00:05:41.007Z,17.64
2018-11-04T00:08:06.958Z,17.66
2018-11-04T00:10:32.932Z,17.62
2018-11-04T00:12:58.906Z,17.63
2018-11-04T00:15:25.058Z,17.63
2018-11-04T00:17:51.016Z,17.62
2018-11-04T00:20:17.029Z,17.63
2018-11-04T00:22:42.945Z,17.63
2018-11-04T00:25:08.911Z,17.60
2018-11-04T00:27:34.873Z,17.61
2018-11-04T00:30:00.987Z,17.60
2018-11-04T00:32:26.828Z,17.58
2018-11-04T00:34:52.816Z,17.60
2018-11-04T00:37:18.823Z,17.59
2018-11-04T00:39:44.805Z,17.57
2018-11-04T00:42:10.760Z,17.56
2018-11-04T00:44:36.721Z,17.57
2018-11-04T00:47:02.669Z,17.57
2018-11-04T00:49:28.647Z,17.56
2018-11-04T00:51:54.613Z,17.55
2018-11-04T00:54:20.582Z,17.55
2018-11-04T00:56:46.528Z,17.55
2018-11-04T00:59:12.537Z,17.54
2018-11-04T01:01:38.521Z,17.57
2018-11-04T01:04:04.452Z,17.55
2018-11-04T01:06:30.435Z,17.56
2018-11-04T01:08:56.444Z,17.53
2018-11-04T01:11:22.364Z,17.56
2018-11-04T01:13:48.344Z,17.57
2018-11-04T01:16:14.293Z,17.56
2018-11-04T01:18:40.342Z,17.56
2018-11-04T01:21:06.340Z,17.54
2018-11-04T01:23:32.279Z,17.55
2018-11-04T01:25:58.230Z,17.57
2018-11-04T01:28:24.185Z,17.54
2018-11-04T01:30:50.485Z,17.53
2018-11-04T01:33:16.448Z,17.53
2018-11-04T01:35:42.405Z,17.51
2018-11-04T01:38:08.371Z,17.50
2018-11-04T01:40:34.327Z,17.51
2018-11-04T01:43:00.335Z,17.53
2018-11-04T01:45:26.316Z,17.51
2018-11-04T01:47:52.268Z,17.54
2018-11-04T01:50:18.333Z,17.52
2018-11-04T01:52:44.293Z,17.52
2018-11-04T01:55:10.476Z,17.50
2018-11-04T01:57:36.482Z,17.51
2018-11-04T02:00:02.446Z,17.50
2018-11-04T02:02:28.402Z,17.50
2018-11-04T02:04:54.437Z,17.52
2018-11-04T02:07:20.414Z,17.52
2018-11-04T02:09:46.368Z,17.53
2018-11-04T02:12:12.321Z,17.52
2018-11-04T02:14:38.307Z,17.50
2018-11-04T02:17:04.276Z,17.50
2018-11-04T02:19:30.274Z,17.51
2018-11-04T02:21:56.220Z,17.50
2018-11-04T02:24:22.188Z,17.49
2018-11-04T02:26:48.189Z,17.50
2018-11-04T02:29:14.168Z,17.48
2018-11-04T02:31:40.118Z,17.48
2018-11-04T02:34:06.084Z,17.47
2018-11-04T02:36:32.046Z,17.46
2018-11-04T02:38:58.081Z,17.46
2018-11-04T02:41:24.108Z,17.47
2018-11-04T02:43:50.296Z,17.48
2018-11-04T02:46:16.247Z,17.48
2018-11-04T02:48:42.231Z,17.46
2018-11-04T02:51:08.201Z,17.46
2018-11-04T02:53:34.251Z,17.47
2018-11-04T02:56:00.206Z,17.47
2018-11-04T02:58:26.261Z,17.45
2018-11-04T03:00:52.224Z,17.45
2018-11-04T03:03:18.261Z,17.44
2018-11-04T03:05:44.233Z,17.46
2018-11-04T03:08:10.185Z,17.45
2018-11-04T03:10:36.160Z,17.45
2018-11-04T03:13:02.111Z,17.44
2018-11-04T03:15:28.155Z,17.45
2018-11-04T03:17:54.113Z,17.42
2018-11-04T03:20:20.062Z,17.44
2018-11-04T03:22:46.016Z,17.43
2018-11-04T03:25:12.023Z,17.43
2018-11-04T03:27:38.009Z,17.44
2018-11-04T03:30:04.017Z,17.44
2018-11-04T03:32:29.952Z,17.43
2018-11-04T03:34:55.921Z,17.43
2018-11-04T03:37:21.879Z,17.46
2018-11-04T03:39:47.838Z,17.46
2018-11-04T03:42:13.809Z,17.45
2018-11-04T03:44:39.776Z,17.44
2018-11-04T03:47:05.770Z,17.46
2018-11-04T03:49:31.740Z,17.44
2018-11-04T03:51:57.722Z,17.44
2018-11-04T03:54:23.677Z,17.43
2018-11-04T03:56:49.625Z,17.43
2018-11-04T03:59:15.578Z,17.45
2018-11-04T04:01:41.527Z,17.44
2018-11-04T04:04:07.487Z,17.43
2018-11-04T04:06:33.431Z,17.45
2018-11-04T04:08:59.405Z,17.45
2018-11-04T04:11:25.439Z,17.44
2018-11-04T04:13:51.395Z,17.44
2018-11-04T04:16:17.357Z,17.43
2018-11-04T04:18:43.304Z,17.44
2018-11-04T04:21:09.349Z,17.45
2018-11-04T04:23:35.383Z,17.46
2018-11-04T04:26:01.361Z,17.46
2018-11-04T04:28:27.317Z,17.45
2018-11-04T04:30:53.269Z,17.44
2018-11-04T04:33:19.292Z,17.46
2018-11-04T04:35:45.246Z,17.46
2018-11-04T04:38:11.208Z,17.46
2018-11-04T04:40:37.154Z,17.46
2018-11-04T04:43:03.104Z,17.46
2018-11-04T04:45:29.050Z,17.47
2018-11-04T04:47:55.153Z,17.48
2018-11-04T04:50:21.092Z,17.48
2018-11-04T04:52:47.048Z,17.49
2018-11-04T04:55:13.037Z,17.49
2018-11-04T04:57:38.982Z,17.49
2018-11-04T05:00:04.931Z,17.51
2018-11-04T05:02:30.926Z,17.50
2018-11-04T05:04:56.880Z,17.49
2018-11-04T05:07:22.828Z,17.50
2018-11-04T05:09:48.868Z,17.51
2018-11-04T05:12:14.811Z,17.51
2018-11-04T05:14:40.792Z,17.49
2018-11-04T05:17:06.757Z,17.48
2018-11-04T05:19:32.719Z,17.50
2018-11-04T05:21:58.675Z,17.55
2018-11-04T05:24:24.636Z,17.58
2018-11-04T05:26:50.581Z,17.61
2018-11-04T05:29:16.528Z,17.62
2018-11-04T05:31:42.489Z,17.65
2018-11-04T05:34:08.536Z,17.67
2018-11-04T05:36:34.506Z,17.68
2018-11-04T05:39:00.452Z,17.69
2018-11-04T05:41:26.920Z,17.71
2018-11-04T05:43:52.868Z,17.69
2018-11-04T05:46:18.820Z,17.72
2018-11-04T05:48:44.772Z,17.79
2018-11-04T05:51:10.727Z,17.75
2018-11-04T05:53:36.709Z,17.75
2018-11-04T05:56:02.668Z,17.77
2018-11-04T05:58:28.697Z,17.79
2018-11-04T06:00:54.703Z,17.79
2018-11-04T06:03:20.655Z,17.82
2018-11-04T06:05:46.640Z,17.82
2018-11-04T06:08:12.608Z,17.81
2018-11-04T06:10:38.576Z,17.84
2018-11-04T06:13:04.566Z,17.85
2018-11-04T06:15:30.559Z,17.83
2018-11-04T06:17:56.509Z,17.85
2018-11-04T06:20:22.512Z,17.85
2018-11-04T06:22:48.577Z,17.86
2018-11-04T06:25:14.540Z,17.87
2018-11-04T06:27:40.480Z,17.86
2018-11-04T06:30:06.598Z,17.88
2018-11-04T06:32:32.531Z,17.87
2018-11-04T06:34:58.488Z,17.85
2018-11-04T06:37:24.440Z,17.85
2018-11-04T06:39:50.388Z,17.88
2018-11-04T06:42:16.358Z,17.87
2018-11-04T06:44:42.312Z,17.85
2018-11-04T06:47:08.369Z,17.90
2018-11-04T06:49:34.191Z,17.90
2018-11-04T06:52:00.148Z,17.91
2018-11-04T06:54:26.111Z,17.91
2018-11-04T06:56:52.076Z,17.91
2018-11-04T06:59:18.924Z,17.92
2018-11-04T07:01:44.880Z,17.92
2018-11-04T07:04:10.816Z,17.92
2018-11-04T07:06:36.776Z,17.92
2018-11-04T07:09:02.822Z,17.95
2018-11-04T07:11:28.985Z,17.91
2018-11-04T07:13:55.017Z,17.91
2018-11-04T07:16:21.093Z,17.93
2018-11-04T07:18:47.043Z,17.93
2018-11-04T07:21:13.024Z,17.97
2018-11-04T07:23:38.987Z,18.00
2018-11-04T07:26:04.953Z,17.98
2018-11-04T07:28:31.085Z,17.97
2018-11-04T07:30:57.036Z,18.00
2018-11-04T07:33:22.996Z,18.05
2018-11-04T07:35:48.995Z,18.04
2018-11-04T07:38:15.047Z,18.05
2018-11-04T07:40:41.000Z,18.02
2018-11-04T07:43:06.976Z,18.02
2018-11-04T07:45:32.952Z,18.03
2018-11-04T07:47:58.913Z,18.03
2018-11-04T07:50:24.913Z,18.02
2018-11-04T07:52:50.833Z,18.06
2018-11-04T07:55:16.850Z,18.06
2018-11-04T07:57:42.795Z,18.07
2018-11-04T08:00:08.793Z,18.06
2018-11-04T08:02:34.828Z,18.05
2018-11-04T08:05:00.864Z,18.05
2018-11-04T08:07:26.992Z,18.06
2018-11-04T08:09:52.936Z,18.07
2018-11-04T08:12:18.964Z,18.06
2018-11-04T08:14:44.907Z,18.04
2018-11-04T08:17:10.867Z,18.07
2018-11-04T08:19:36.809Z,18.08
2018-11-04T08:22:02.747Z,18.09
2018-11-04T08:24:28.840Z,18.14
2018-11-04T08:26:54.792Z,18.12
2018-11-04T08:29:20.749Z,18.11
2018-11-04T08:31:46.779Z,18.12
2018-11-04T08:34:12.720Z,18.20
2018-11-04T08:36:38.667Z,18.16
2018-11-04T08:39:04.615Z,18.15
2018-11-04T08:41:32.295Z,18.18
2018-11-04T08:43:58.263Z,18.20
2018-11-04T08:46:24.239Z,18.17
2018-11-04T08:48:50.196Z,18.18
2018-11-04T08:51:16.223Z,18.17
2018-11-04T08:53:42.178Z,18.16
2018-11-04T08:56:08.132Z,18.15
2018-11-04T08:58:34.131Z,18.13
2018-11-04T09:01:00.093Z,18.15
2018-11-04T09:03:26.073Z,18.16
2018-11-04T09:05:52.028Z,18.16
2018-11-04T09:08:18.019Z,18.16
2018-11-04T09:10:44.072Z,18.16
2018-11-04T09:13:10.036Z,18.17
2018-11-04T09:15:35.974Z,18.19
2018-11-04T09:18:01.941Z,18.24
2018-11-04T09:20:27.909Z,18.24
2018-11-04T09:22:53.887Z,18.25
2018-11-04T09:25:19.850Z,18.27
2018-11-04T09:27:45.815Z,18.28
2018-11-04T09:30:11.803Z,18.30
2018-11-04T09:32:37.801Z,18.28
2018-11-04T09:35:03.865Z,18.31
2018-11-04T09:37:29.850Z,18.30
2018-11-04T09:39:55.813Z,18.30
2018-11-04T09:42:21.860Z,18.31
2018-11-04T09:44:47.807Z,18.32
2018-11-04T09:47:13.762Z,18.33
2018-11-04T09:49:39.824Z,18.33
2018-11-04T09:52:05.771Z,18.33
2018-11-04T09:54:31.817Z,18.32
2018-11-04T09:56:57.788Z,18.33
2018-11-04T09:59:23.832Z,18.35
2018-11-04T10:01:49.802Z,18.36
2018-11-04T10:04:15.783Z,18.37
2018-11-04T10:06:41.900Z,18.40
2018-11-04T10:09:07.925Z,18.43
2018-11-04T10:11:33.921Z,18.42
2018-11-04T10:14:01.943Z,18.41
2018-11-04T10:16:28.011Z,18.41
2018-11-04T10:18:53.942Z,18.41
2018-11-04T10:21:19.857Z,18.41
2018-11-04T10:23:45.852Z,18.41
2018-11-04T10:26:11.801Z,18.42
2018-11-04T10:28:37.786Z,18.39
2018-11-04T10:31:03.844Z,18.42
2018-11-04T10:33:29.821Z,18.42
2018-11-04T10:35:55.941Z,18.44
2018-11-04T10:38:21.910Z,18.56
2018-11-04T10:40:47.938Z,18.64
2018-11-04T10:43:13.969Z,18.66
2018-11-04T10:45:39.931Z,18.64
2018-11-04T10:48:05.959Z,18.57
2018-11-04T10:50:31.950Z,18.54
2018-11-04T10:52:58.323Z,18.52
2018-11-04T10:55:24.336Z,18.54
2018-11-04T10:57:50.363Z,18.63
2018-11-04T11:00:16.386Z,18.74
2018-11-04T11:02:42.348Z,18.82
2018-11-04T11:05:08.352Z,18.90
2018-11-04T11:07:34.376Z,18.93
2018-11-04T11:10:00.367Z,18.97
2018-11-04T11:12:26.419Z,18.99
2018-11-04T11:14:52.468Z,19.02
2018-11-04T11:17:18.429Z,19.05
2018-11-04T11:19:45.431Z,19.08
2018-11-04T11:22:11.494Z,19.10
2018-11-04T11:24:37.470Z,19.12
2018-11-04T11:27:03.597Z,19.15
2018-11-04T11:29:29.716Z,19.18
2018-11-04T11:31:55.710Z,19.21
2018-11-04T11:34:21.820Z,19.23
2018-11-04T11:36:47.797Z,19.25
2018-11-04T11:39:14.787Z,19.27
2018-11-04T11:41:40.862Z,19.31
2018-11-04T11:44:06.848Z,19.32
2018-11-04T11:46:33.023Z,19.35
2018-11-04T11:48:59.014Z,19.36
2018-11-04T11:51:24.984Z,19.38
2018-11-04T11:53:50.946Z,19.40
2018-11-04T11:56:16.936Z,19.42
2018-11-04T11:58:42.884Z,19.44
2018-11-04T12:01:08.866Z,19.47
2018-11-04T12:03:34.887Z,19.47
2018-11-04T12:06:00.869Z,19.49
2018-11-04T12:08:26.941Z,19.49
2018-11-04T12:10:53.114Z,19.47
2018-11-04T12:13:19.075Z,19.43
2018-11-04T12:15:45.067Z,19.39
2018-11-04T12:18:11.037Z,19.31
2018-11-04T12:20:37.015Z,19.30
2018-11-04T12:23:02.959Z,19.29
2018-11-04T12:25:28.899Z,19.28
2018-11-04T12:27:54.919Z,19.28
2018-11-04T12:30:20.872Z,19.25
2018-11-04T12:32:46.834Z,19.26
2018-11-04T12:35:12.869Z,19.25
2018-11-04T12:37:38.894Z,19.24
2018-11-04T12:40:04.845Z,19.23
2018-11-04T12:42:30.796Z,19.24
2018-11-04T12:44:56.746Z,19.24
2018-11-04T12:47:22.715Z,19.23
2018-11-04T12:49:48.691Z,19.23
2018-11-04T12:52:14.686Z,19.23
2018-11-04T12:54:40.678Z,19.23
2018-11-04T12:57:06.816Z,19.23
2018-11-04T12:59:32.764Z,19.23
2018-11-04T13:01:58.734Z,19.23
2018-11-04T13:04:24.686Z,19.23
2018-11-04T13:06:50.732Z,19.24
2018-11-04T13:09:16.758Z,19.27
2018-11-04T13:11:42.737Z,19.27
2018-11-04T13:14:08.800Z,19.28
2018-11-04T13:16:34.740Z,19.30
2018-11-04T13:19:00.764Z,19.29
2018-11-04T13:21:26.774Z,19.30
2018-11-04T13:23:52.744Z,19.31
2018-11-04T13:26:18.697Z,19.32
2018-11-04T13:28:44.745Z,19.31
2018-11-04T13:31:10.696Z,19.31
2018-11-04T13:33:36.668Z,19.30
2018-11-04T13:36:02.752Z,19.31
2018-11-04T13:38:28.628Z,19.31
2018-11-04T13:40:54.583Z,19.30
2018-11-04T13:43:20.655Z,19.30
2018-11-04T13:45:46.517Z,19.30
2018-11-04T13:48:12.498Z,19.31
2018-11-04T13:50:38.452Z,19.30
2018-11-04T13:53:04.404Z,19.33
2018-11-04T13:55:30.371Z,19.32
2018-11-04T13:57:56.324Z,19.33
2018-11-04T14:00:22.326Z,19.35
2018-11-04T14:02:48.362Z,19.34
2018-11-04T14:05:14.409Z,19.35
2018-11-04T14:07:40.363Z,19.38
2018-11-04T14:10:06.417Z,19.39
2018-11-04T14:12:32.394Z,19.41
2018-11-04T14:14:58.359Z,19.41
2018-11-04T14:17:24.327Z,19.41
2018-11-04T14:19:50.377Z,19.41
2018-11-04T14:22:16.328Z,19.40
2018-11-04T14:24:42.284Z,19.42
2018-11-04T14:27:08.248Z,19.40
2018-11-04T14:29:34.208Z,19.42
2018-11-04T14:32:00.156Z,19.44
2018-11-04T14:34:26.149Z,19.46
2018-11-04T14:36:52.121Z,19.48
2018-11-04T14:39:18.094Z,19.48
2018-11-04T14:41:44.418Z,19.47
2018-11-04T14:44:10.373Z,19.46
2018-11-04T14:46:36.325Z,19.46
2018-11-04T14:49:02.276Z,19.47
2018-11-04T14:51:28.341Z,19.48
2018-11-04T14:53:54.307Z,19.45
2018-11-04T14:56:20.277Z,19.47
2018-11-04T14:58:46.232Z,19.48
2018-11-04T15:01:12.297Z,19.49
2018-11-04T15:03:38.206Z,19.47
2018-11-04T15:06:04.159Z,19.47
2018-11-04T15:08:30.111Z,19.45
2018-11-04T15:10:56.080Z,19.46
2018-11-04T15:13:22.023Z,19.43
2018-11-04T15:15:47.992Z,19.46
2018-11-04T15:18:14.035Z,19.46
2018-11-04T15:20:40.063Z,19.46
2018-11-04T15:23:06.211Z,19.46
2018-11-04T15:25:32.172Z,19.46
2018-11-04T15:27:58.154Z,19.45
2018-11-04T15:30:24.101Z,19.47
2018-11-04T15:32:50.098Z,19.49
2018-11-04T15:35:16.093Z,19.49
2018-11-04T15:37:42.027Z,19.52
2018-11-04T15:40:07.980Z,19.51
2018-11-04T15:42:33.934Z,19.52
2018-11-04T15:44:59.932Z,19.53
2018-11-04T15:47:25.988Z,19.53
2018-11-04T15:49:51.924Z,19.53
2018-11-04T15:52:17.905Z,19.52
2018-11-04T15:54:43.903Z,19.52
2018-11-04T15:57:09.924Z,19.53
2018-11-04T15:59:35.860Z,19.52
2018-11-04T16:02:01.832Z,19.53
2018-11-04T16:04:27.785Z,19.54
2018-11-04T16:06:53.739Z,19.54
2018-11-04T16:09:19.709Z,19.53
2018-11-04T16:11:45.692Z,19.53
2018-11-04T16:14:11.648Z,19.55
2018-11-04T16:16:37.647Z,19.53
2018-11-04T16:19:03.609Z,19.52
2018-11-04T16:21:29.613Z,19.54
2018-11-04T16:23:55.872Z,19.56
2018-11-04T16:26:22.162Z,19.56
2018-11-04T16:28:48.314Z,19.56
2018-11-04T16:31:14.308Z,19.53
2018-11-04T16:33:40.272Z,19.54
2018-11-04T16:36:06.239Z,19.54
2018-11-04T16:38:32.233Z,19.56
2018-11-04T16:40:58.423Z,19.56
2018-11-04T16:43:25.703Z,19.56
2018-11-04T16:45:51.612Z,19.55
2018-11-04T16:48:17.771Z,19.54
2018-11-04T16:50:43.743Z,19.56
2018-11-04T16:53:09.710Z,19.55
2018-11-04T16:55:35.712Z,19.55
2018-11-04T16:58:03.713Z,19.55
2018-11-04T17:00:29.709Z,19.56
2018-11-04T17:02:55.652Z,19.56
2018-11-04T17:05:21.812Z,19.56
2018-11-04T17:07:47.619Z,19.54
2018-11-04T17:10:13.585Z,19.58
2018-11-04T17:12:39.737Z,19.61
2018-11-04T17:15:06.717Z,19.62
2018-11-04T17:17:32.677Z,19.61
2018-11-04T17:19:58.631Z,19.59
2018-11-04T17:22:24.605Z,19.59
2018-11-04T17:24:50.610Z,19.61
2018-11-04T17:27:16.593Z,19.61
2018-11-04T17:29:42.557Z,19.60
2018-11-04T17:32:10.552Z,19.59
2018-11-04T17:34:36.511Z,19.60
2018-11-04T17:37:04.510Z,19.62
2018-11-04T17:39:30.486Z,19.61
2018-11-04T17:41:56.415Z,19.61
2018-11-04T17:44:22.454Z,19.62
2018-11-04T17:46:48.359Z,19.62
2018-11-04T17:49:14.351Z,19.63
2018-11-04T17:51:44.185Z,19.66
2018-11-04T17:54:10.240Z,19.67
2018-11-04T17:56:38.221Z,19.69
2018-11-04T17:59:04.229Z,19.66
2018-11-04T18:01:30.213Z,19.65
2018-11-04T18:03:56.188Z,19.66
2018-11-04T18:06:22.203Z,19.63
2018-11-04T18:08:48.200Z,19.65
2018-11-04T18:11:14.181Z,19.64
2018-11-04T18:13:40.166Z,19.66
2018-11-04T18:16:06.123Z,19.63
2018-11-04T18:18:32.089Z,19.63
2018-11-04T18:20:58.044Z,19.65
2018-11-04T18:23:24.012Z,19.63
2018-11-04T18:25:50.084Z,19.64
2018-11-04T18:28:16.085Z,19.64
2018-11-04T18:30:42.117Z,19.64
2018-11-04T18:33:08.185Z,19.64
2018-11-04T18:35:34.156Z,19.65
2018-11-04T18:38:00.134Z,19.66
2018-11-04T18:40:26.099Z,19.64
2018-11-04T18:42:52.161Z,19.65
2018-11-04T18:45:18.132Z,19.65
2018-11-04T18:47:44.373Z,19.64
2018-11-04T18:50:10.360Z,19.67
2018-11-04T18:52:36.464Z,19.68
2018-11-04T18:55:02.453Z,19.67
2018-11-04T18:57:28.429Z,19.68
2018-11-04T18:59:54.450Z,19.64
2018-11-04T19:02:24.183Z,19.65
2018-11-04T19:04:50.211Z,19.66
2018-11-04T19:07:17.178Z,19.68
2018-11-04T19:09:43.156Z,19.64
2018-11-04T19:12:09.229Z,19.63
2018-11-04T19:14:35.195Z,19.65
2018-11-04T19:17:04.833Z,19.67
2018-11-04T19:19:30.871Z,19.65
2018-11-04T19:21:56.854Z,19.66
2018-11-04T19:24:22.928Z,19.66
2018-11-04T19:26:49.999Z,19.68
2018-11-04T19:29:16.230Z,19.69
2018-11-04T19:31:42.228Z,19.66
2018-11-04T19:34:08.176Z,19.67
2018-11-04T19:36:34.199Z,19.69
2018-11-04T19:39:00.140Z,19.70
2018-11-04T19:41:26.098Z,19.69
2018-11-04T19:43:52.148Z,19.68
2018-11-04T19:46:18.132Z,19.72
2018-11-04T19:48:46.232Z,19.70
2018-11-04T19:51:12.157Z,19.71
2018-11-04T19:53:38.253Z,19.70
2018-11-04T19:56:04.231Z,19.69
2018-11-04T19:58:30.210Z,19.70
2018-11-04T20:00:56.189Z,19.68
2018-11-04T20:03:22.164Z,19.68
2018-11-04T20:05:48.170Z,19.67
2018-11-04T20:08:14.090Z,19.68
2018-11-04T20:10:40.109Z,19.68
2018-11-04T20:13:06.035Z,19.69
2018-11-04T20:15:32.052Z,19.69
2018-11-04T20:17:58.186Z,19.69
2018-11-04T20:20:24.223Z,19.69
2018-11-04T20:22:50.191Z,19.70
2018-11-04T20:25:16.141Z,19.72
2018-11-04T20:27:42.239Z,19.69
2018-11-04T20:30:08.248Z,19.70
2018-11-04T20:32:36.253Z,19.69
2018-11-04T20:35:03.210Z,19.67
2018-11-04T20:37:29.222Z,19.68
2018-11-04T20:39:55.239Z,19.70
2018-11-04T20:42:21.219Z,19.68
2018-11-04T20:44:47.229Z,19.68
2018-11-04T20:47:13.253Z,19.66
2018-11-04T20:49:42.586Z,19.67
2018-11-04T20:52:10.634Z,19.67
2018-11-04T20:54:36.591Z,19.67
2018-11-04T20:57:03.568Z,19.67
2018-11-04T20:59:29.548Z,19.67
2018-11-04T21:01:55.549Z,19.69
2018-11-04T21:04:21.699Z,19.69
2018-11-04T21:06:47.675Z,19.69
2018-11-04T21:09:13.647Z,19.67
2018-11-04T21:11:39.650Z,19.68
2018-11-04T21:14:05.616Z,19.69
2018-11-04T21:16:31.690Z,19.69
2018-11-04T21:18:57.572Z,19.70
2018-11-04T21:21:23.561Z,19.73
2018-11-04T21:23:50.520Z,19.70
2018-11-04T21:26:16.554Z,19.70
2018-11-04T21:28:42.630Z,19.75
2018-11-04T21:31:08.558Z,19.74
2018-11-04T21:33:34.488Z,19.74
2018-11-04T21:36:00.451Z,19.72
2018-11-04T21:38:26.496Z,19.73
2018-11-04T21:40:52.473Z,19.71
2018-11-04T21:43:18.718Z,19.72
2018-11-04T21:45:44.589Z,19.71
2018-11-04T21:48:10.573Z,19.74
2018-11-04T21:50:36.547Z,19.75
2018-11-04T21:53:02.512Z,19.72
2018-11-04T21:55:28.564Z,19.72
2018-11-04T21:57:54.453Z,19.73
2018-11-04T22:00:20.457Z,19.72
2018-11-04T22:02:46.699Z,19.73
2018-11-04T22:05:12.458Z,19.72
2018-11-04T22:07:38.425Z,19.72
2018-11-04T22:10:04.404Z,19.71
2018-11-04T22:12:30.349Z,19.72
2018-11-04T22:14:56.310Z,19.74
2018-11-04T22:17:23.397Z,19.73
2018-11-04T22:19:49.408Z,19.73
2018-11-04T22:22:15.461Z,19.72
2018-11-04T22:24:41.412Z,19.69
2018-11-04T22:27:07.368Z,19.71
2018-11-04T22:29:33.423Z,19.72
2018-11-04T22:31:59.417Z,19.72
2018-11-04T22:34:25.361Z,19.69
2018-11-04T22:36:51.342Z,19.70
2018-11-04T22:39:17.390Z,19.72
2018-11-04T22:41:43.345Z,19.73
2018-11-04T22:44:09.312Z,19.71
2018-11-04T22:46:35.276Z,19.71
2018-11-04T22:49:01.250Z,19.70
2018-11-04T22:51:27.285Z,19.72
2018-11-04T22:53:53.255Z,19.71
2018-11-04T22:56:19.242Z,19.73
2018-11-04T22:58:45.189Z,19.70
2018-11-04T23:01:11.149Z,19.72
2018-11-04T23:03:37.128Z,19.73
2018-11-04T23:06:03.080Z,19.70
2018-11-04T23:08:29.084Z,19.72
2018-11-04T23:10:55.040Z,19.68
2018-11-04T23:13:20.985Z,19.69
2018-11-04T23:15:47.266Z,19.68
2018-11-04T23:18:13.234Z,19.70
2018-11-04T23:20:39.183Z,19.69
2018-11-04T23:23:05.151Z,19.68
2018-11-04T23:25:31.114Z,19.68
2018-11-04T23:27:57.055Z,19.69
2018-11-04T23:30:24.004Z,19.68
2018-11-04T23:32:49.948Z,19.68
2018-11-04T23:35:15.917Z,19.67
2018-11-04T23:37:41.865Z,19.68
2018-11-04T23:40:07.827Z,19.70
2018-11-04T23:42:33.868Z,19.68
2018-11-04T23:44:59.820Z,19.68
2018-11-04T23:47:25.931Z,19.66
2018-11-04T23:49:52.014Z,19.67
2018-11-04T23:52:19.002Z,19.69
2018-11-04T23:54:44.963Z,19.68
2018-11-04T23:57:10.952Z,19.65
2018-11-04T23:59:36.924Z,19.66
